Time;durP1;ratioP1;P1;durP2;ratioP2;P2;SDS_P1;SDS_P2;PMS_P1;PMS_P2;Temp;Humidity;BMP_temperature;BMP_pressure;BME280_temperature;BME280_humidity;BME280_pressure;Samples;Min_cycle;Max_cycle;Signal;HPM_P1;HPM_P2
2021/04/05 05:27:09;;;;;;;53.40;19.73;;;;;;;;;;5036945;22;20238;-72
2021/04/05 05:29:36;;;;;;;64.53;19.77;;;;;;;;;;5019941;28;20203;-72
2021/04/05 05:32:03;;;;;;;53.43;19.33;;;;;;;;;;5018074;28;20312;-74
2021/04/05 05:34:30;;;;;;;53.57;19.47;;;;;;;;;;5020357;28;20381;-72
2021/04/05 05:36:57;;;;;;;51.90;19.83;;;;;;;;;;5017615;28;20208;-72
2021/04/05 05:39:24;;;;;;;49.63;19.77;;;;;;;;;;5017729;28;20227;-72
2021/04/05 05:41:56;;;;;;;42.27;15.23;;;;;;;;;;5019892;28;20203;-72
2021/04/05 05:44:32;;;;;;;39.70;14.87;;;;;;;;;;5019917;28;20228;-72
2021/04/05 05:47:04;;;;;;;39.50;13.60;;;;;;;;;;5019985;28;20591;-73
2021/04/05 05:49:35;;;;;;;46.77;13.90;;;;;;;;;;5019870;28;20249;-72
2021/04/05 05:52:17;;;;;;;45.13;14.27;;;;;;;;;;5020948;28;20211;-72
2021/04/05 05:54:57;;;;;;;31.40;12.20;;;;;;;;;;5018007;28;20773;-72
2021/04/05 05:57:29;;;;;;;37.00;12.73;;;;;;;;;;5017790;28;20322;-71
2021/04/05 06:00:03;;;;;;;37.00;13.40;;;;;;;;;;5019680;28;20650;-72
2021/04/05 06:02:34;;;;;;;37.27;13.30;;;;;;;;;;5017301;28;20338;-72
2021/04/05 06:05:07;;;;;;;37.80;14.43;;;;;;;;;;5025562;28;20219;-71
2021/04/05 06:07:37;;;;;;;38.13;13.77;;;;;;;;;;5039598;28;20298;-71
2021/04/05 06:10:06;;;;;;;43.40;13.93;;;;;;;;;;5027128;28;20200;-71
2021/04/05 06:12:37;;;;;;;41.27;14.43;;;;;;;;;;5018863;28;20678;-71
2021/04/05 06:15:14;;;;;;;39.10;14.50;;;;;;;;;;5020142;28;20223;-71
2021/04/05 06:17:51;;;;;;;44.13;13.83;;;;;;;;;;5019303;28;20381;-71
2021/04/05 06:20:19;;;;;;;40.73;14.17;;;;;;;;;;5013331;28;20231;-71
2021/04/05 06:23:01;;;;;;;40.70;14.10;;;;;;;;;;5018113;28;20489;-71
2021/04/05 06:25:31;;;;;;;46.07;15.27;;;;;;;;;;5012691;28;20760;-70
2021/04/05 06:28:05;;;;;;;45.40;15.70;;;;;;;;;;5016820;28;20207;-71
2021/04/05 06:30:39;;;;;;;39.63;13.87;;;;;;;;;;5018128;28;20210;-71
2021/04/05 06:33:08;;;;;;;40.23;15.60;;;;;;;;;;5015676;28;20236;-71
2021/04/05 06:35:52;;;;;;;40.73;14.93;;;;;;;;;;5018769;28;20223;-71
2021/04/05 06:38:21;;;;;;;39.90;14.53;;;;;;;;;;5018064;28;20235;-71
2021/04/05 06:40:48;;;;;;;41.13;14.33;;;;;;;;;;5019168;28;21764;-71
2021/04/05 06:43:39;;;;;;;39.90;15.90;;;;;;;;;;5017840;28;20213;-71
2021/04/05 06:46:17;;;;;;;43.37;16.67;;;;;;;;;;5014767;28;20287;-74
2021/04/05 06:48:57;;;;;;;40.17;15.50;;;;;;;;;;5012994;28;20222;-72
2021/04/05 06:51:48;;;;;;;44.93;15.87;;;;;;;;;;5018570;28;20726;-72
2021/04/05 06:54:24;;;;;;;45.10;15.60;;;;;;;;;;5000190;28;20242;-72
2021/04/05 06:56:57;;;;;;;42.47;15.57;;;;;;;;;;5016909;28;20239;-72
2021/04/05 06:59:32;;;;;;;54.33;17.10;;;;;;;;;;5014887;28;20228;-72
2021/04/05 07:02:09;;;;;;;45.43;16.03;;;;;;;;;;5018283;28;20201;-72
2021/04/05 07:04:50;;;;;;;45.27;16.17;;;;;;;;;;5014218;28;20326;-72
2021/04/05 07:07:20;;;;;;;43.17;15.03;;;;;;;;;;5018150;28;20199;-72
2021/04/05 07:09:49;;;;;;;39.70;15.07;;;;;;;;;;5015287;28;20711;-72
2021/04/05 07:12:28;;;;;;;44.50;17.13;;;;;;;;;;5012887;28;20232;-72
2021/04/05 07:15:01;;;;;;;41.30;15.00;;;;;;;;;;5026807;28;20242;-71
2021/04/05 07:17:32;;;;;;;41.70;16.13;;;;;;;;;;5036162;28;20208;-71
2021/04/05 07:20:02;;;;;;;47.93;17.53;;;;;;;;;;5020412;28;20255;-71
2021/04/05 07:22:44;;;;;;;36.43;16.40;;;;;;;;;;5015545;28;20227;-71
2021/04/05 07:25:14;;;;;;;45.20;16.53;;;;;;;;;;5015149;28;20247;-74
2021/04/05 07:27:45;;;;;;;45.47;16.23;;;;;;;;;;5011988;28;20250;-71
2021/04/05 07:30:14;;;;;;;42.57;16.83;;;;;;;;;;5014200;28;20239;-72
2021/04/05 07:32:49;;;;;;;42.33;15.90;;;;;;;;;;5013507;28;21632;-72
2021/04/05 07:35:19;;;;;;;51.23;17.53;;;;;;;;;;5015831;28;20222;-72
2021/04/05 07:37:53;;;;;;;47.27;17.03;;;;;;;;;;5013175;28;20195;-72
2021/04/05 07:40:26;;;;;;;41.53;16.30;;;;;;;;;;5018734;28;20871;-71
2021/04/05 07:42:56;;;;;;;45.80;16.43;;;;;;;;;;5014420;28;20296;-72
2021/04/05 07:45:24;;;;;;;40.97;16.23;;;;;;;;;;5016675;28;20325;-73
2021/04/05 07:47:56;;;;;;;50.40;17.80;;;;;;;;;;5014637;28;20231;-72
2021/04/05 07:50:28;;;;;;;39.97;16.10;;;;;;;;;;5015584;28;20199;-72
2021/04/05 07:52:58;;;;;;;45.67;16.50;;;;;;;;;;5014342;28;20749;-72
2021/04/05 07:55:25;;;;;;;38.80;16.07;;;;;;;;;;5014393;28;20897;-72
2021/04/05 07:57:57;;;;;;;44.07;16.97;;;;;;;;;;5017746;28;20298;-71
2021/04/05 08:00:28;;;;;;;49.77;18.10;;;;;;;;;;5014681;28;20232;-71
2021/04/05 08:03:16;;;;;;;51.03;18.63;;;;;;;;;;5017267;28;20200;-72
2021/04/05 08:05:57;;;;;;;43.47;16.97;;;;;;;;;;5016896;28;20204;-72
2021/04/05 08:08:57;;;;;;;41.20;16.90;;;;;;;;;;5013910;28;20233;-72
2021/04/05 08:11:41;;;;;;;40.57;17.20;;;;;;;;;;4933421;28;20297;-71
2021/04/05 08:14:12;;;;;;;41.03;17.30;;;;;;;;;;4933998;28;20223;-72
2021/04/05 08:16:41;;;;;;;42.80;16.53;;;;;;;;;;4981312;28;20341;-72
2021/04/05 08:19:13;;;;;;;36.20;15.63;;;;;;;;;;5016106;28;20290;-72
2021/04/05 08:21:42;;;;;;;42.87;16.77;;;;;;;;;;5016204;28;21080;-71
2021/04/05 08:24:12;;;;;;;93.40;41.90;;;;;;;;;;5021109;28;20243;-71
2021/04/05 08:26:43;;;;;;;64.20;31.47;;;;;;;;;;5037870;28;22245;-71
2021/04/05 08:29:12;;;;;;;65.60;28.70;;;;;;;;;;5023606;28;20737;-71
2021/04/05 08:31:53;;;;;;;54.50;26.67;;;;;;;;;;5016338;28;20242;-72
2021/04/05 08:34:22;;;;;;;34.40;16.37;;;;;;;;;;5012389;28;20298;-71
2021/04/05 08:36:59;;;;;;;30.63;12.70;;;;;;;;;;5012799;28;20235;-71
2021/04/05 08:39:29;;;;;;;24.60;11.53;;;;;;;;;;5014443;28;20299;-72
2021/04/05 08:42:02;;;;;;;25.37;11.60;;;;;;;;;;5013662;28;20256;-72
2021/04/05 08:44:34;;;;;;;24.30;10.37;;;;;;;;;;5012469;28;20718;-71
2021/04/05 08:47:02;;;;;;;23.63;9.80;;;;;;;;;;5014895;28;20203;-71
2021/04/05 08:49:30;;;;;;;23.50;11.03;;;;;;;;;;5012904;28;20648;-71
2021/04/05 08:52:01;;;;;;;21.13;10.40;;;;;;;;;;5013694;28;20517;-73
2021/04/05 08:54:29;;;;;;;23.37;10.23;;;;;;;;;;5015753;28;20246;-72
2021/04/05 08:56:57;;;;;;;20.17;9.97;;;;;;;;;;5014139;28;20722;-72
2021/04/05 08:59:27;;;;;;;20.77;8.90;;;;;;;;;;5017309;28;20761;-72
2021/04/05 09:01:57;;;;;;;19.30;9.20;;;;;;;;;;5013818;28;20211;-71
2021/04/05 09:04:24;;;;;;;16.50;8.30;;;;;;;;;;5017558;28;20226;-71
2021/04/05 09:07:01;;;;;;;18.63;9.30;;;;;;;;;;5016312;28;20222;-71
2021/04/05 09:09:28;;;;;;;15.13;7.87;;;;;;;;;;5016021;28;20744;-72
2021/04/05 09:11:55;;;;;;;14.43;7.70;;;;;;;;;;5018508;28;20319;-73
2021/04/05 09:14:23;;;;;;;16.13;7.67;;;;;;;;;;5018376;28;20669;-72
2021/04/05 09:17:00;;;;;;;15.60;8.27;;;;;;;;;;5018509;28;20730;-72
2021/04/05 09:19:37;;;;;;;12.40;6.13;;;;;;;;;;5019290;28;20691;-72
2021/04/05 09:22:24;;;;;;;20.53;9.10;;;;;;;;;;5018081;28;20241;-71
2021/04/05 09:25:09;;;;;;;22.40;10.80;;;;;;;;;;5018379;28;21191;-72
2021/04/05 09:27:51;;;;;;;21.83;12.00;;;;;;;;;;5019510;28;20306;-71
2021/04/05 09:30:29;;;;;;;20.17;9.40;;;;;;;;;;5016614;28;20466;-75
2021/04/05 09:33:10;;;;;;;15.30;8.30;;;;;;;;;;5024001;28;20211;-71
2021/04/05 09:35:46;;;;;;;19.87;9.73;;;;;;;;;;5043315;28;20220;-71
2021/04/05 09:38:30;;;;;;;21.00;9.23;;;;;;;;;;5031576;28;20207;-72
2021/04/05 09:41:15;;;;;;;18.70;9.80;;;;;;;;;;5019928;28;20315;-74
2021/04/05 09:44:00;;;;;;;19.77;8.80;;;;;;;;;;5017292;28;20227;-71
2021/04/05 09:46:54;;;;;;;19.83;8.80;;;;;;;;;;5019882;28;20210;-71
2021/04/05 09:49:25;;;;;;;15.97;8.50;;;;;;;;;;4986111;28;20196;-72
2021/04/05 09:52:08;;;;;;;18.03;9.90;;;;;;;;;;5016493;28;20200;-71
2021/04/05 09:54:37;;;;;;;13.67;7.27;;;;;;;;;;5018947;28;20603;-72
2021/04/05 09:57:05;;;;;;;18.43;8.67;;;;;;;;;;5019904;28;20294;-72
2021/04/05 09:59:37;;;;;;;15.40;7.63;;;;;;;;;;5015080;28;20204;-72
2021/04/05 10:02:05;;;;;;;16.23;6.90;;;;;;;;;;5006219;28;20696;-72
2021/04/05 10:04:33;;;;;;;18.60;8.37;;;;;;;;;;5013935;28;20228;-73
2021/04/05 10:07:00;;;;;;;11.83;6.17;;;;;;;;;;5019516;28;20291;-74
2021/04/05 10:09:28;;;;;;;9.67;5.37;;;;;;;;;;5017699;28;20514;-74
2021/04/05 10:11:56;;;;;;;9.77;5.60;;;;;;;;;;5014971;28;20222;-74
2021/04/05 10:14:25;;;;;;;9.37;5.30;;;;;;;;;;5017685;28;20310;-73
2021/04/05 10:16:54;;;;;;;10.87;5.80;;;;;;;;;;5018990;28;20205;-73
2021/04/05 10:19:25;;;;;;;14.50;4.90;;;;;;;;;;5018016;28;20210;-74
2021/04/05 10:21:54;;;;;;;9.23;4.33;;;;;;;;;;5018809;28;20771;-73
2021/04/05 10:24:22;;;;;;;8.20;4.03;;;;;;;;;;5012961;28;20925;-74
2021/04/05 10:26:50;;;;;;;7.93;3.40;;;;;;;;;;5010853;28;20307;-74
2021/04/05 10:29:19;;;;;;;6.20;3.50;;;;;;;;;;5014898;28;20674;-73
2021/04/05 10:31:46;;;;;;;4.30;2.40;;;;;;;;;;5011560;28;20291;-74
2021/04/05 10:34:14;;;;;;;4.53;2.50;;;;;;;;;;5011542;28;20847;-74
2021/04/05 10:36:42;;;;;;;6.13;2.40;;;;;;;;;;5011370;28;20286;-75
2021/04/05 10:39:09;;;;;;;7.30;2.60;;;;;;;;;;5009503;28;20775;-75
2021/04/05 10:41:39;;;;;;;3.63;1.80;;;;;;;;;;5011173;28;20239;-75
2021/04/05 10:44:07;;;;;;;3.23;1.13;;;;;;;;;;5027355;28;20883;-74
2021/04/05 10:46:39;;;;;;;3.13;1.60;;;;;;;;;;5024230;28;20242;-74
2021/04/05 10:49:08;;;;;;;2.97;1.40;;;;;;;;;;5015878;28;20205;-73
2021/04/05 10:51:40;;;;;;;2.13;1.40;;;;;;;;;;5015745;28;20204;-74
2021/04/05 10:54:08;;;;;;;3.23;1.70;;;;;;;;;;5010983;28;20366;-75
2021/04/05 10:56:36;;;;;;;6.50;1.70;;;;;;;;;;5009528;28;20689;-75
2021/04/05 10:59:04;;;;;;;3.77;1.43;;;;;;;;;;5007741;28;20671;-73
2021/04/05 11:01:31;;;;;;;2.20;1.33;;;;;;;;;;5009611;28;20318;-73
2021/04/05 11:03:59;;;;;;;5.07;1.90;;;;;;;;;;5010662;28;20223;-73
2021/04/05 11:06:29;;;;;;;2.60;1.60;;;;;;;;;;5017717;28;20303;-73
2021/04/05 11:08:56;;;;;;;3.40;1.57;;;;;;;;;;5016550;28;20570;-73
2021/04/05 11:11:24;;;;;;;2.13;1.30;;;;;;;;;;5016269;28;20261;-73
2021/04/05 11:13:52;;;;;;;1.70;0.90;;;;;;;;;;5019720;28;20860;-73
2021/04/05 11:16:20;;;;;;;0.80;0.60;;;;;;;;;;5015188;28;20577;-72
2021/04/05 11:18:48;;;;;;;0.70;0.47;;;;;;;;;;5013695;28;20318;-73
2021/04/05 11:21:16;;;;;;;0.70;0.57;;;;;;;;;;5011766;28;20242;-73
2021/04/05 11:23:44;;;;;;;1.70;0.60;;;;;;;;;;5012760;28;20400;-73
2021/04/05 11:26:11;;;;;;;1.23;0.80;;;;;;;;;;5069322;22;20229;-81
2021/04/05 11:28:39;;;;;;;2.07;1.00;;;;;;;;;;5063057;28;20587;-82
2021/04/05 11:31:08;;;;;;;1.83;1.23;;;;;;;;;;5065335;28;20199;-82
2021/04/05 11:33:36;;;;;;;1.87;0.90;;;;;;;;;;5064141;28;20199;-82
2021/04/05 11:36:05;;;;;;;1.60;0.97;;;;;;;;;;5065531;28;20237;-82
2021/04/05 11:38:36;;;;;;;4.00;1.00;;;;;;;;;;5064847;28;20213;-82
2021/04/05 11:41:04;;;;;;;2.83;1.03;;;;;;;;;;5065383;28;20673;-82
2021/04/05 11:43:33;;;;;;;2.70;1.00;;;;;;;;;;5064744;28;20274;-82
2021/04/05 11:46:04;;;;;;;3.23;1.20;;;;;;;;;;5060591;28;20254;-82
2021/04/05 11:48:31;;;;;;;5.20;1.03;;;;;;;;;;5063769;28;20643;-81
2021/04/05 11:50:58;;;;;;;7.83;1.50;;;;;;;;;;5067233;28;20216;-81
2021/04/05 11:53:29;;;;;;;4.53;1.97;;;;;;;;;;5066629;28;20197;-82
2021/04/05 11:56:03;;;;;;;7.07;2.03;;;;;;;;;;5067056;28;20279;-82
2021/04/05 11:58:32;;;;;;;3.37;1.80;;;;;;;;;;5063855;28;20214;-82
2021/04/05 12:01:01;;;;;;;5.50;2.10;;;;;;;;;;5068619;28;20336;-82
2021/04/05 12:03:32;;;;;;;4.73;1.67;;;;;;;;;;5066590;28;20210;-82
2021/04/05 12:06:01;;;;;;;2.90;1.90;;;;;;;;;;5064364;28;20214;-82
2021/04/05 12:08:31;;;;;;;4.87;2.40;;;;;;;;;;5065035;28;20447;-82
2021/04/05 12:11:04;;;;;;;4.00;2.00;;;;;;;;;;5066214;28;20229;-82
2021/04/05 12:13:33;;;;;;;6.37;1.73;;;;;;;;;;5065484;28;20207;-81
2021/04/05 12:16:01;;;;;;;3.97;2.00;;;;;;;;;;5062350;28;20838;-81
2021/04/05 12:18:28;;;;;;;6.77;2.40;;;;;;;;;;5064282;28;20240;-81
2021/04/05 12:21:02;;;;;;;4.60;2.07;;;;;;;;;;5064022;28;20214;-81
2021/04/05 12:23:29;;;;;;;8.47;2.00;;;;;;;;;;5063989;28;20213;-81
2021/04/05 12:25:59;;;;;;;12.23;3.30;;;;;;;;;;5065186;28;20324;-81
2021/04/05 12:28:33;;;;;;;5.77;2.27;;;;;;;;;;5062584;28;20250;-81
2021/04/05 12:31:00;;;;;;;10.70;2.60;;;;;;;;;;5065931;28;20715;-81
2021/04/05 12:33:27;;;;;;;5.67;2.17;;;;;;;;;;5065106;28;20209;-82
2021/04/05 12:35:55;;;;;;;4.63;2.17;;;;;;;;;;5068114;28;20346;-82
2021/04/05 12:38:27;;;;;;;5.27;2.20;;;;;;;;;;5069907;28;20206;-82
2021/04/05 12:40:54;;;;;;;4.33;1.80;;;;;;;;;;5065981;28;20322;-82
2021/04/05 12:43:24;;;;;;;3.20;1.50;;;;;;;;;;5070076;28;20610;-82
2021/04/05 12:45:53;;;;;;;3.90;1.30;;;;;;;;;;5074620;28;20693;-82
2021/04/05 12:48:22;;;;;;;5.37;1.30;;;;;;;;;;5072273;28;20230;-83
2021/04/05 12:50:54;;;;;;;2.07;0.90;;;;;;;;;;5069656;28;20200;-82
2021/04/05 12:53:23;;;;;;;9.30;1.20;;;;;;;;;;5075476;28;20210;-83
2021/04/05 12:55:50;;;;;;;3.03;0.87;;;;;;;;;;5082738;28;20252;-80
2021/04/05 12:58:17;;;;;;;4.20;0.60;;;;;;;;;;5085528;27;20589;-80
2021/04/05 13:00:45;;;;;;;3.93;1.20;;;;;;;;;;5089605;28;20211;-80
2021/04/05 13:03:14;;;;;;;2.63;0.70;;;;;;;;;;5073950;28;20293;-81
2021/04/05 13:05:44;;;;;;;9.40;1.37;;;;;;;;;;5067991;28;20325;-82
2021/04/05 13:08:14;;;;;;;4.03;0.80;;;;;;;;;;5067447;28;20214;-82
2021/04/05 13:10:43;;;;;;;4.60;1.00;;;;;;;;;;5071502;28;20285;-82
2021/04/05 13:13:12;;;;;;;5.53;1.33;;;;;;;;;;5069085;28;20202;-82
2021/04/05 13:15:42;;;;;;;2.67;1.10;;;;;;;;;;5070139;28;20226;-83
2021/04/05 13:18:11;;;;;;;3.77;1.30;;;;;;;;;;5068963;28;20329;-82
2021/04/05 13:20:40;;;;;;;9.57;3.43;;;;;;;;;;5070425;28;20222;-83
2021/04/05 13:23:07;;;;;;;6.33;1.60;;;;;;;;;;5066855;28;20293;-83
2021/04/05 13:25:35;;;;;;;3.77;2.07;;;;;;;;;;5069661;28;20206;-83
2021/04/05 13:28:03;;;;;;;7.73;2.00;;;;;;;;;;5069201;28;20297;-83
2021/04/05 13:30:31;;;;;;;2.87;1.70;;;;;;;;;;5065871;28;20217;-83
2021/04/05 13:32:59;;;;;;;7.70;2.20;;;;;;;;;;5064838;28;20272;-81
2021/04/05 13:35:27;;;;;;;4.70;1.63;;;;;;;;;;5067193;28;20252;-83
2021/04/05 13:37:55;;;;;;;2.70;1.70;;;;;;;;;;5065239;28;20209;-82
2021/04/05 13:40:24;;;;;;;3.87;1.87;;;;;;;;;;5067905;28;20265;-82
2021/04/05 13:42:51;;;;;;;5.00;1.50;;;;;;;;;;5070547;28;20248;-82
2021/04/05 13:45:19;;;;;;;3.57;1.73;;;;;;;;;;5067441;28;20203;-82
2021/04/05 13:47:47;;;;;;;4.90;1.30;;;;;;;;;;5069030;28;20195;-82
2021/04/05 13:50:15;;;;;;;1.73;0.87;;;;;;;;;;5071988;28;20266;-82
2021/04/05 13:52:43;;;;;;;9.87;1.93;;;;;;;;;;5070010;28;20210;-81
2021/04/05 13:55:13;;;;;;;4.20;1.30;;;;;;;;;;5068874;28;20240;-81
2021/04/05 13:57:42;;;;;;;3.80;1.40;;;;;;;;;;5067345;28;20501;-82
2021/04/05 14:00:10;;;;;;;7.60;1.47;;;;;;;;;;5067303;28;20268;-81
2021/04/05 14:02:45;;;;;;;6.50;1.40;;;;;;;;;;5066588;28;20202;-81
2021/04/05 14:05:15;;;;;;;5.37;1.10;;;;;;;;;;5067811;28;20218;-82
2021/04/05 14:07:43;;;;;;;5.70;1.27;;;;;;;;;;5065218;28;20255;-82
2021/04/05 14:10:11;;;;;;;10.60;1.23;;;;;;;;;;5065758;28;20848;-82
2021/04/05 14:12:41;;;;;;;3.90;1.00;;;;;;;;;;5067215;28;20478;-82
2021/04/05 14:15:10;;;;;;;3.57;1.10;;;;;;;;;;5070858;28;20245;-82
2021/04/05 14:17:40;;;;;;;4.70;1.13;;;;;;;;;;5065767;28;20225;-82
2021/04/05 14:20:10;;;;;;;6.17;1.20;;;;;;;;;;5062693;28;20673;-82
2021/04/05 14:22:39;;;;;;;8.50;1.60;;;;;;;;;;5067498;28;20209;-82
2021/04/05 14:25:06;;;;;;;10.50;1.97;;;;;;;;;;5070500;28;20206;-82
2021/04/05 14:27:40;;;;;;;8.87;1.53;;;;;;;;;;5074276;28;20226;-82
2021/04/05 14:30:10;;;;;;;4.10;1.43;;;;;;;;;;5079773;28;20229;-82
2021/04/05 14:32:39;;;;;;;3.60;1.20;;;;;;;;;;5072605;28;20198;-82
2021/04/05 14:35:07;;;;;;;5.73;1.00;;;;;;;;;;5072222;28;20297;-82
2021/04/05 14:37:38;;;;;;;8.07;1.57;;;;;;;;;;5069012;28;20229;-82
2021/04/05 14:40:06;;;;;;;2.70;0.90;;;;;;;;;;5081392;28;20197;-82
2021/04/05 14:42:34;;;;;;;6.70;1.40;;;;;;;;;;5090988;28;20397;-82
2021/04/05 14:45:02;;;;;;;4.43;1.40;;;;;;;;;;5088440;28;20228;-82
2021/04/05 14:47:32;;;;;;;4.50;2.00;;;;;;;;;;5071449;28;20226;-82
2021/04/05 14:50:01;;;;;;;5.00;1.50;;;;;;;;;;5069034;28;20231;-82
2021/04/05 14:52:29;;;;;;;8.50;1.70;;;;;;;;;;5068580;28;20272;-82
2021/04/05 14:54:56;;;;;;;3.63;1.20;;;;;;;;;;5065036;28;20568;-82
2021/04/05 14:57:24;;;;;;;4.37;1.53;;;;;;;;;;5066514;28;20337;-82
2021/04/05 14:59:52;;;;;;;4.40;1.20;;;;;;;;;;5069414;28;20206;-82
2021/04/05 15:02:20;;;;;;;2.70;0.93;;;;;;;;;;5065328;28;20692;-82
2021/04/05 15:04:48;;;;;;;3.87;1.53;;;;;;;;;;5070412;28;20209;-82
2021/04/05 15:07:16;;;;;;;2.87;1.33;;;;;;;;;;5065299;28;20263;-82
2021/04/05 15:09:44;;;;;;;4.90;1.60;;;;;;;;;;5066690;28;20206;-82
2021/04/05 15:12:15;;;;;;;4.63;1.50;;;;;;;;;;5068085;28;20214;-82
2021/04/05 15:14:43;;;;;;;5.17;1.30;;;;;;;;;;5067377;28;20834;-82
2021/04/05 15:17:10;;;;;;;3.93;1.37;;;;;;;;;;5067038;28;20313;-82
2021/04/05 15:19:38;;;;;;;3.80;1.70;;;;;;;;;;5063978;28;20233;-82
2021/04/05 15:22:08;;;;;;;5.93;1.30;;;;;;;;;;5067922;28;20245;-82
2021/04/05 15:24:36;;;;;;;4.57;1.30;;;;;;;;;;5066353;28;20253;-82
2021/04/05 15:27:04;;;;;;;8.53;1.90;;;;;;;;;;5067084;28;20297;-82
2021/04/05 15:29:32;;;;;;;5.27;2.03;;;;;;;;;;5065051;28;20206;-82
2021/04/05 15:31:59;;;;;;;6.27;1.50;;;;;;;;;;5065600;28;20199;-82
2021/04/05 15:34:26;;;;;;;3.00;1.20;;;;;;;;;;5066743;28;20248;-82
2021/04/05 15:36:54;;;;;;;4.60;1.40;;;;;;;;;;5067715;28;20214;-82
2021/04/05 15:39:23;;;;;;;5.07;1.20;;;;;;;;;;5066190;28;20640;-84
2021/04/05 15:41:52;;;;;;;5.27;1.40;;;;;;;;;;5068288;28;20230;-84
2021/04/05 15:44:21;;;;;;;7.37;1.50;;;;;;;;;;5068033;28;20233;-82
2021/04/05 15:46:51;;;;;;;6.13;1.60;;;;;;;;;;5068898;28;20233;-82
2021/04/05 15:49:22;;;;;;;4.37;1.30;;;;;;;;;;5068165;28;20235;-82
2021/04/05 15:51:52;;;;;;;8.23;1.40;;;;;;;;;;5067486;28;20207;-82
2021/04/05 15:54:25;;;;;;;4.63;1.20;;;;;;;;;;5066789;28;20499;-82
2021/04/05 15:56:55;;;;;;;6.97;1.50;;;;;;;;;;5067843;28;20612;-82
2021/04/05 15:59:24;;;;;;;3.57;1.00;;;;;;;;;;5063967;28;20203;-82
2021/04/05 16:01:52;;;;;;;2.00;1.10;;;;;;;;;;5069244;28;20227;-82
2021/04/05 16:04:22;;;;;;;3.53;1.10;;;;;;;;;;5061342;28;20222;-82
2021/04/05 16:06:53;;;;;;;3.47;1.13;;;;;;;;;;5066292;28;20241;-82
2021/04/05 16:09:23;;;;;;;3.20;1.50;;;;;;;;;;5062877;28;20226;-81
2021/04/05 16:11:53;;;;;;;6.47;1.90;;;;;;;;;;5067313;28;20198;-83
2021/04/05 16:14:22;;;;;;;3.23;1.50;;;1.90;99.90;;;;;;5065918;28;20217;-83
2021/04/05 16:16:51;;;;;;;8.70;2.67;;;0.70;99.90;;;;;;5067001;28;20523;-81
2021/04/05 16:19:24;;;;;;;2.60;1.40;;;0.70;99.90;;;;;;5068694;28;20492;-81
2021/04/05 16:21:56;;;;;;;6.10;1.77;;;0.50;99.90;;;;;;5083693;27;20490;-81
2021/04/05 16:24:27;;;;;;;5.07;1.93;;;0.50;99.90;;;;;;5089878;28;20504;-80
2021/04/05 16:27:01;;;;;;;5.57;1.23;;;0.40;99.90;;;;;;5082670;28;20514;-81
2021/04/05 16:30:29;;;;;;;3.27;1.37;;;0.50;99.90;;;;;;5068762;28;20936;-81
2021/04/05 16:33:01;;;;;;;4.23;1.80;;;0.60;99.90;;;;;;5064904;28;20953;-81
2021/04/05 16:35:31;;;;;;;7.30;2.67;;;0.60;99.90;;;;;;5067887;28;20519;-81
2021/04/05 16:38:05;;;;;;;1.80;0.80;;;0.70;99.90;;;;;;5066707;28;20876;-81
2021/04/05 16:40:37;;;;;;;5.97;1.03;;;0.70;99.90;;;;;;5067472;28;20488;-81
2021/04/05 16:43:15;;;;;;;3.73;1.80;;;0.70;99.90;;;;;;5065304;28;20517;-81
2021/04/05 16:45:45;;;;;;;7.70;0.70;;;0.60;99.90;;;;;;5069871;28;20487;-81
2021/04/05 16:48:15;;;;;;;4.33;1.43;;;0.70;99.90;;;;;;5066553;28;20833;-80
2021/04/05 16:50:43;;;;;;;7.93;1.90;;;0.70;99.90;;;;;;5068869;28;20531;-80
2021/04/05 16:53:17;;;;;;;13.90;2.40;;;0.70;99.90;;;;;;5063605;28;20259;-81
2021/04/05 16:55:46;;;;;;;9.00;1.73;;;0.90;99.90;;;;;;5063305;28;20475;-81
2021/04/05 16:58:21;;;;;;;13.20;3.73;;;0.90;99.90;;;;;;5061968;28;20514;-81
2021/04/05 17:00:49;;;;;;;4.57;1.80;;;0.90;99.90;;;;;;5064550;28;20567;-81
2021/04/05 17:03:19;;;;;;;4.97;1.80;;;1.00;99.90;;;;;;5065688;28;20468;-81
2021/04/05 17:05:48;;;;;;;13.67;5.50;;;0.90;99.90;;;;;;5066268;28;20517;-81
2021/04/05 17:08:21;;;;;;;5.63;2.00;;;0.80;99.90;;;;;;5065741;28;20935;-81
2021/04/05 17:10:52;;;;;;;6.07;2.67;;;0.80;99.90;;;;;;5065319;28;20512;-81
2021/04/05 17:13:23;;;;;;;4.90;1.80;;;0.70;99.90;;;;;;5062563;28;20535;-82
2021/04/05 17:15:49;;;;;;;5.93;1.40;;;0.70;99.90;;;;;;5064091;28;20498;-81
2021/04/05 17:18:23;;;;;;;4.03;1.57;;;0.70;99.90;;;;;;5062333;28;20528;-81
2021/04/05 17:20:57;;;;;;;2.47;1.30;;;0.70;99.90;;;;;;5066822;28;20922;-81
2021/04/05 17:23:26;;;;;;;5.43;1.77;;;0.70;99.90;;;;;;5064160;28;20893;-81
2021/04/05 17:25:57;;;;;;;6.03;1.53;;;0.80;99.90;;;;;;5066919;28;20480;-81
2021/04/05 17:28:27;;;;;;;4.67;1.30;;;0.80;99.90;;;;;;5062361;28;20468;-81
2021/04/05 17:30:56;;;;;;;5.37;1.40;;;0.80;99.90;;;;;;5067882;28;20461;-83
2021/04/05 17:33:30;;;;;;;2.57;1.50;;;0.70;99.90;;;;;;5065438;28;20207;-81
2021/04/05 17:36:10;;;;;;;4.80;1.70;;;0.60;99.90;;;;;;5069454;28;20517;-81
2021/04/05 17:38:39;;;;;;;4.07;1.50;;;0.50;99.90;;;;;;5066758;28;20464;-81
2021/04/05 17:41:12;;;;;;;8.87;1.70;;;0.50;99.90;;;;;;5065113;28;20512;-81
2021/04/05 17:43:47;;;;;;;8.67;2.30;;;0.40;99.90;;;;;;5060250;28;20483;-81
2021/04/05 17:46:28;;;;;;;6.80;2.07;;;0.40;99.90;;;;;;5058689;28;20922;-81
2021/04/05 17:49:10;;;;;;;5.03;2.00;;;0.40;99.90;;;;;;5061434;28;20465;-81
2021/04/05 17:52:00;;;;;;;5.50;1.60;;;0.30;99.90;;;;;;5066742;28;20460;-81
2021/04/05 17:54:40;;;;;;;7.07;1.80;;;0.20;99.90;;;;;;5066405;28;20935;-81
2021/04/05 17:57:11;;;;;;;7.17;1.90;;;0.20;99.90;;;;;;5065422;28;20574;-82
2021/04/05 17:59:53;;;;;;;5.67;1.80;;;0.20;99.90;;;;;;5065650;28;20461;-81
2021/04/05 18:02:29;;;;;;;7.77;1.70;;;0.20;99.90;;;;;;5066824;28;20475;-82
2021/04/05 18:05:08;;;;;;;3.67;1.53;;;0.20;99.90;;;;;;5067821;28;20243;-82
2021/04/05 18:07:39;;;;;;;8.13;2.07;;;0.30;99.90;;;;;;5089343;28;20474;-82
2021/04/05 18:10:23;;;;;;;5.23;1.60;;;0.20;99.90;;;;;;5087948;27;20444;-81
2021/04/05 18:12:55;;;;;;;5.13;1.80;;;0.20;99.90;;;;;;5080864;28;20553;-82
2021/04/05 18:15:38;;;;;;;11.30;1.83;;;0.10;99.90;;;;;;5071016;28;20467;-81
2021/04/05 18:18:14;;;;;;;2.57;1.53;;;0.10;99.90;;;;;;5066126;28;20476;-82
2021/04/05 18:21:31;;;;;;;4.53;1.60;;;0.00;99.90;;;;;;5067679;28;20953;-81
2021/04/05 18:24:13;;;;;;;5.20;1.77;;;-0.10;99.90;;;;;;5066609;28;20468;-82
2021/04/05 18:26:58;;;;;;;7.40;2.00;;;-0.10;99.90;;;;;;5068127;28;20468;-81
2021/04/05 18:29:53;;;;;;;3.67;1.70;;;-0.20;99.90;;;;;;5066510;28;20869;-81
2021/04/05 18:32:28;;;;;;;6.13;1.83;;;-0.20;99.90;;;;;;5066831;28;20466;-81
2021/04/05 18:34:59;;;;;;;6.93;2.47;;;-0.30;99.90;;;;;;5066144;28;20976;-82
2021/04/05 18:37:28;;;;;;;12.53;5.63;;;-0.30;99.90;;;;;;5066504;28;20567;-81
2021/04/05 18:40:08;;;;;;;6.37;3.00;;;-0.30;99.90;;;;;;5068025;28;20534;-81
2021/04/05 18:42:39;;;;;;;6.57;2.30;;;-0.40;99.90;;;;;;5063100;28;20480;-81
2021/04/05 18:45:17;;;;;;;3.97;1.70;;;-0.30;99.90;;;;;;5068186;28;20949;-82
2021/04/05 18:47:52;;;;;;;8.53;2.40;;;-0.20;99.90;;;;;;5066278;28;20463;-82
2021/04/05 18:50:24;;;;;;;10.77;2.33;;;-0.20;99.90;;;;;;5067379;28;20448;-82
2021/04/05 18:52:55;;;;;;;6.93;2.70;;;-0.30;99.90;;;;;;5064320;28;20532;-82
2021/04/05 18:55:24;;;;;;;9.77;3.53;;;-0.20;99.90;;;;;;5062425;28;20984;-82
2021/04/05 18:57:59;;;;;;;7.70;2.57;;;-0.20;99.90;;;;;;5064933;28;20475;-82
2021/04/05 19:00:30;;;;;;;6.00;2.27;;;-0.10;99.90;;;;;;5060846;28;20505;-82
2021/04/05 19:03:11;;;;;;;7.80;2.93;;;-0.10;99.90;;;;;;5063731;28;20452;-82
2021/04/05 19:05:45;;;;;;;11.37;6.63;;;0.00;99.90;;;;;;5063393;28;20560;-82
2021/04/05 19:08:17;;;;;;;15.07;4.70;;;0.10;99.90;;;;;;5069097;28;20509;-82
2021/04/05 19:10:46;;;;;;;7.63;2.47;;;0.10;99.90;;;;;;5067446;28;21196;-82
2021/04/05 19:13:38;;;;;;;8.20;3.03;;;0.20;99.90;;;;;;5068245;28;20468;-81
2021/04/05 19:16:15;;;;;;;9.03;2.93;;;0.50;99.90;;;;;;5064531;28;20476;-82
2021/04/05 19:19:11;;;;;;;10.50;4.20;;;0.80;99.90;;;;;;5066711;28;20503;-81
2021/04/05 19:22:02;;;;;;;17.17;3.03;;;0.70;99.90;;;;;;5069641;28;20501;-81
2021/04/05 19:25:00;;;;;;;6.00;3.43;;;0.80;99.90;;;;;;5069876;28;20251;-81
2021/04/05 19:28:24;;;;;;;6.67;3.50;;;0.80;99.90;;;;;;5072860;28;20528;-80
2021/04/05 19:31:26;;;;;;;8.23;2.70;;;0.70;99.90;;;;;;5058359;28;20198;-81
2021/04/05 19:34:23;;;;;;;8.90;3.30;;;0.60;99.90;;;;;;5048411;28;20440;-81
2021/04/05 19:37:01;;;;;;;6.33;2.60;;;0.60;99.90;;;;;;5070384;28;20524;-81
2021/04/05 19:43:53;;;;;;;6.90;3.70;;;0.40;99.90;;;;;;5051210;28;20713;-82
2021/04/05 19:46:24;;;;;;;8.57;3.50;;;0.40;99.90;;;;;;5074887;28;20510;-81
2021/04/05 19:49:13;;;;;;;5.70;2.23;;;0.30;99.90;;;;;;5078018;28;20540;-81
2021/04/05 19:52:13;;;;;;;5.77;1.97;;;0.30;99.90;;;;;;5083271;28;20449;-81
2021/04/05 19:55:07;;;;;;;8.70;2.53;;;0.30;99.90;;;;;;5088895;28;20428;-81
2021/04/05 19:57:57;;;;;;;12.70;2.90;;;0.20;99.90;;;;;;5088007;28;20464;-81
2021/04/05 20:00:33;;;;;;;8.80;2.83;;;0.20;99.90;;;;;;5081870;28;20465;-81
2021/04/05 20:03:33;;;;;;;8.77;3.07;;;0.10;99.90;;;;;;5075687;28;20440;-81
2021/04/05 20:06:09;;;;;;;5.57;3.33;;;0.10;99.90;;;;;;5068649;28;20507;-82
2021/04/05 20:08:51;;;;;;;7.57;3.93;;;0.20;99.90;;;;;;5078222;28;20487;-82